sensor_id;sensor_type;location;lat;lon;timestamp;P1;durP1;ratioP1;P2;durP2;ratioP2
52067;SDS011;60237;52.338;21.228;2023-10-31T00:00:49;38.75;;;9.95;;
52067;SDS011;60237;52.338;21.228;2023-10-31T00:03:17;33.35;;;9.25;;
52067;SDS011;60237;52.338;21.228;2023-10-31T00:05:43;35.40;;;9.00;;
52067;SDS011;60237;52.338;21.228;2023-10-31T00:08:11;26.98;;;10.07;;
52067;SDS011;60237;52.338;21.228;2023-10-31T00:10:37;30.45;;;9.38;;
52067;SDS011;60237;52.338;21.228;2023-10-31T00:13:04;45.97;;;9.77;;
52067;SDS011;60237;52.338;21.228;2023-10-31T00:15:31;35.67;;;8.80;;
52067;SDS011;60237;52.338;21.228;2023-10-31T00:17:57;77.60;;;13.13;;
52067;SDS011;60237;52.338;21.228;2023-10-31T00:20:24;42.45;;;9.38;;
52067;SDS011;60237;52.338;21.228;2023-10-31T00:22:51;32.00;;;10.65;;
52067;SDS011;60237;52.338;21.228;2023-10-31T00:25:18;18.15;;;9.20;;
52067;SDS011;60237;52.338;21.228;2023-10-31T00:27:44;39.10;;;10.75;;
52067;SDS011;60237;52.338;21.228;2023-10-31T00:30:11;42.03;;;10.57;;
52067;SDS011;60237;52.338;21.228;2023-10-31T00:32:38;32.78;;;9.35;;
52067;SDS011;60237;52.338;21.228;2023-10-31T00:35:05;41.05;;;10.05;;
52067;SDS011;60237;52.338;21.228;2023-10-31T00:37:31;46.50;;;10.55;;
52067;SDS011;60237;52.338;21.228;2023-10-31T00:39:58;53.20;;;10.43;;
52067;SDS011;60237;52.338;21.228;2023-10-31T00:42:25;40.17;;;9.90;;
52067;SDS011;60237;52.338;21.228;2023-10-31T00:44:51;62.03;;;11.30;;
52067;SDS011;60237;52.338;21.228;2023-10-31T00:47:18;30.23;;;8.18;;
52067;SDS011;60237;52.338;21.228;2023-10-31T00:49:45;37.95;;;9.23;;
52067;SDS011;60237;52.338;21.228;2023-10-31T00:52:11;43.72;;;10.00;;
52067;SDS011;60237;52.338;21.228;2023-10-31T00:54:38;28.67;;;8.40;;
52067;SDS011;60237;52.338;21.228;2023-10-31T00:57:05;54.28;;;10.30;;
52067;SDS011;60237;52.338;21.228;2023-10-31T00:59:32;37.92;;;9.10;;
52067;SDS011;60237;52.338;21.228;2023-10-31T01:01:59;30.08;;;8.55;;
52067;SDS011;60237;52.338;21.228;2023-10-31T01:04:25;27.55;;;8.57;;
52067;SDS011;60237;52.338;21.228;2023-10-31T01:06:52;46.10;;;9.38;;
52067;SDS011;60237;52.338;21.228;2023-10-31T01:09:19;34.25;;;9.50;;
52067;SDS011;60237;52.338;21.228;2023-10-31T01:11:45;29.42;;;8.70;;
52067;SDS011;60237;52.338;21.228;2023-10-31T01:14:12;28.80;;;8.05;;
52067;SDS011;60237;52.338;21.228;2023-10-31T01:16:39;35.20;;;8.15;;
52067;SDS011;60237;52.338;21.228;2023-10-31T01:19:06;28.80;;;7.80;;
52067;SDS011;60237;52.338;21.228;2023-10-31T01:21:33;31.98;;;8.60;;
52067;SDS011;60237;52.338;21.228;2023-10-31T01:24:00;75.18;;;10.70;;
52067;SDS011;60237;52.338;21.228;2023-10-31T01:26:27;42.72;;;8.73;;
52067;SDS011;60237;52.338;21.228;2023-10-31T01:28:53;31.35;;;8.18;;
52067;SDS011;60237;52.338;21.228;2023-10-31T01:31:20;27.73;;;7.50;;
52067;SDS011;60237;52.338;21.228;2023-10-31T01:33:47;30.23;;;8.35;;
52067;SDS011;60237;52.338;21.228;2023-10-31T01:36:14;42.17;;;7.72;;
52067;SDS011;60237;52.338;21.228;2023-10-31T01:38:41;22.88;;;7.25;;
52067;SDS011;60237;52.338;21.228;2023-10-31T01:41:07;40.88;;;8.50;;
52067;SDS011;60237;52.338;21.228;2023-10-31T01:43:35;33.40;;;7.93;;
52067;SDS011;60237;52.338;21.228;2023-10-31T01:46:02;33.70;;;7.30;;
52067;SDS011;60237;52.338;21.228;2023-10-31T01:48:30;33.80;;;8.23;;
52067;SDS011;60237;52.338;21.228;2023-10-31T01:50:58;69.10;;;9.43;;
52067;SDS011;60237;52.338;21.228;2023-10-31T01:53:26;20.40;;;7.05;;
52067;SDS011;60237;52.338;21.228;2023-10-31T01:55:53;36.83;;;7.93;;
52067;SDS011;60237;52.338;21.228;2023-10-31T01:58:23;25.27;;;6.82;;
52067;SDS011;60237;52.338;21.228;2023-10-31T02:00:52;209.52;;;16.60;;
52067;SDS011;60237;52.338;21.228;2023-10-31T02:03:23;27.13;;;7.03;;
52067;SDS011;60237;52.338;21.228;2023-10-31T02:05:51;54.83;;;8.30;;
52067;SDS011;60237;52.338;21.228;2023-10-31T02:08:19;26.08;;;6.40;;
52067;SDS011;60237;52.338;21.228;2023-10-31T02:10:48;29.30;;;7.18;;
52067;SDS011;60237;52.338;21.228;2023-10-31T02:13:16;36.58;;;7.47;;
52067;SDS011;60237;52.338;21.228;2023-10-31T02:15:45;25.30;;;6.32;;
52067;SDS011;60237;52.338;21.228;2023-10-31T02:18:12;35.92;;;7.53;;
52067;SDS011;60237;52.338;21.228;2023-10-31T02:20:39;29.02;;;6.95;;
52067;SDS011;60237;52.338;21.228;2023-10-31T02:23:06;34.60;;;7.40;;
52067;SDS011;60237;52.338;21.228;2023-10-31T02:25:33;33.45;;;7.30;;
52067;SDS011;60237;52.338;21.228;2023-10-31T02:28:00;47.85;;;8.00;;
52067;SDS011;60237;52.338;21.228;2023-10-31T02:30:27;50.20;;;8.05;;
52067;SDS011;60237;52.338;21.228;2023-10-31T02:32:54;88.50;;;9.70;;
52067;SDS011;60237;52.338;21.228;2023-10-31T02:35:21;35.75;;;6.20;;
52067;SDS011;60237;52.338;21.228;2023-10-31T02:37:49;36.53;;;6.97;;
52067;SDS011;60237;52.338;21.228;2023-10-31T02:40:16;33.55;;;6.30;;
52067;SDS011;60237;52.338;21.228;2023-10-31T02:42:43;33.20;;;6.63;;
52067;SDS011;60237;52.338;21.228;2023-10-31T02:45:10;39.35;;;6.60;;
52067;SDS011;60237;52.338;21.228;2023-10-31T02:47:37;40.33;;;6.53;;
52067;SDS011;60237;52.338;21.228;2023-10-31T02:50:05;33.08;;;5.40;;
52067;SDS011;60237;52.338;21.228;2023-10-31T02:52:32;29.80;;;6.00;;
52067;SDS011;60237;52.338;21.228;2023-10-31T02:54:59;39.65;;;6.45;;
52067;SDS011;60237;52.338;21.228;2023-10-31T02:57:26;31.13;;;6.82;;
52067;SDS011;60237;52.338;21.228;2023-10-31T02:59:53;72.28;;;8.63;;
52067;SDS011;60237;52.338;21.228;2023-10-31T03:02:20;37.33;;;6.45;;
52067;SDS011;60237;52.338;21.228;2023-10-31T03:04:49;37.60;;;6.72;;
52067;SDS011;60237;52.338;21.228;2023-10-31T03:07:16;59.13;;;8.25;;
52067;SDS011;60237;52.338;21.228;2023-10-31T03:09:43;33.97;;;6.18;;
52067;SDS011;60237;52.338;21.228;2023-10-31T03:12:10;33.33;;;5.97;;
52067;SDS011;60237;52.338;21.228;2023-10-31T03:14:37;35.90;;;6.93;;
52067;SDS011;60237;52.338;21.228;2023-10-31T03:17:04;30.02;;;5.95;;
52067;SDS011;60237;52.338;21.228;2023-10-31T03:19:31;27.23;;;5.32;;
52067;SDS011;60237;52.338;21.228;2023-10-31T03:21:58;32.90;;;5.70;;
52067;SDS011;60237;52.338;21.228;2023-10-31T03:24:25;25.90;;;5.95;;
52067;SDS011;60237;52.338;21.228;2023-10-31T03:26:52;64.93;;;8.45;;
52067;SDS011;60237;52.338;21.228;2023-10-31T03:29:19;44.97;;;6.57;;
52067;SDS011;60237;52.338;21.228;2023-10-31T03:31:46;41.00;;;6.72;;
52067;SDS011;60237;52.338;21.228;2023-10-31T03:34:13;44.65;;;7.13;;
52067;SDS011;60237;52.338;21.228;2023-10-31T03:36:40;36.15;;;6.28;;
52067;SDS011;60237;52.338;21.228;2023-10-31T03:39:07;42.92;;;6.93;;
52067;SDS011;60237;52.338;21.228;2023-10-31T03:41:35;35.35;;;6.47;;
52067;SDS011;60237;52.338;21.228;2023-10-31T03:44:02;20.38;;;4.93;;
52067;SDS011;60237;52.338;21.228;2023-10-31T03:46:28;38.85;;;6.60;;
52067;SDS011;60237;52.338;21.228;2023-10-31T03:48:55;36.35;;;5.80;;
52067;SDS011;60237;52.338;21.228;2023-10-31T03:51:22;40.50;;;6.30;;
52067;SDS011;60237;52.338;21.228;2023-10-31T03:53:49;63.72;;;8.07;;
52067;SDS011;60237;52.338;21.228;2023-10-31T03:56:16;37.72;;;6.82;;
52067;SDS011;60237;52.338;21.228;2023-10-31T03:58:44;31.52;;;5.47;;
52067;SDS011;60237;52.338;21.228;2023-10-31T04:01:11;33.72;;;6.47;;
52067;SDS011;60237;52.338;21.228;2023-10-31T04:03:38;51.53;;;7.20;;
52067;SDS011;60237;52.338;21.228;2023-10-31T04:06:05;47.13;;;6.53;;
52067;SDS011;60237;52.338;21.228;2023-10-31T04:08:32;26.95;;;4.40;;
52067;SDS011;60237;52.338;21.228;2023-10-31T04:10:59;53.90;;;7.25;;
52067;SDS011;60237;52.338;21.228;2023-10-31T04:13:27;32.00;;;5.55;;
52067;SDS011;60237;52.338;21.228;2023-10-31T04:15:54;39.28;;;6.15;;
52067;SDS011;60237;52.338;21.228;2023-10-31T04:18:21;36.65;;;5.30;;
52067;SDS011;60237;52.338;21.228;2023-10-31T04:20:48;32.92;;;5.53;;
52067;SDS011;60237;52.338;21.228;2023-10-31T04:23:15;31.10;;;4.70;;
52067;SDS011;60237;52.338;21.228;2023-10-31T04:25:42;40.55;;;5.90;;
52067;SDS011;60237;52.338;21.228;2023-10-31T04:28:09;41.88;;;5.60;;
52067;SDS011;60237;52.338;21.228;2023-10-31T04:30:36;29.35;;;4.75;;
52067;SDS011;60237;52.338;21.228;2023-10-31T04:33:03;74.97;;;7.32;;
52067;SDS011;60237;52.338;21.228;2023-10-31T04:35:30;30.52;;;4.95;;
52067;SDS011;60237;52.338;21.228;2023-10-31T04:37:57;28.48;;;4.88;;
52067;SDS011;60237;52.338;21.228;2023-10-31T04:40:24;36.10;;;5.60;;
52067;SDS011;60237;52.338;21.228;2023-10-31T04:42:51;28.52;;;4.65;;
52067;SDS011;60237;52.338;21.228;2023-10-31T04:45:18;36.92;;;5.80;;
52067;SDS011;60237;52.338;21.228;2023-10-31T04:47:45;43.03;;;6.30;;
52067;SDS011;60237;52.338;21.228;2023-10-31T04:50:13;34.85;;;5.15;;
52067;SDS011;60237;52.338;21.228;2023-10-31T04:52:40;24.95;;;4.75;;
52067;SDS011;60237;52.338;21.228;2023-10-31T04:55:09;28.90;;;5.30;;
52067;SDS011;60237;52.338;21.228;2023-10-31T04:57:36;31.17;;;4.95;;
52067;SDS011;60237;52.338;21.228;2023-10-31T05:00:03;50.30;;;5.80;;
52067;SDS011;60237;52.338;21.228;2023-10-31T05:02:32;40.58;;;5.80;;
52067;SDS011;60237;52.338;21.228;2023-10-31T05:05:00;29.80;;;4.43;;
52067;SDS011;60237;52.338;21.228;2023-10-31T05:07:27;18.00;;;4.30;;
52067;SDS011;60237;52.338;21.228;2023-10-31T05:09:54;40.60;;;5.32;;
52067;SDS011;60237;52.338;21.228;2023-10-31T05:12:21;35.08;;;4.85;;
52067;SDS011;60237;52.338;21.228;2023-10-31T05:14:48;41.15;;;5.28;;
52067;SDS011;60237;52.338;21.228;2023-10-31T05:17:15;35.33;;;4.28;;
52067;SDS011;60237;52.338;21.228;2023-10-31T05:19:43;33.33;;;4.75;;
52067;SDS011;60237;52.338;21.228;2023-10-31T05:22:10;41.22;;;4.90;;
52067;SDS011;60237;52.338;21.228;2023-10-31T05:24:37;29.23;;;4.00;;
52067;SDS011;60237;52.338;21.228;2023-10-31T05:27:04;75.28;;;7.25;;
52067;SDS011;60237;52.338;21.228;2023-10-31T05:29:34;66.53;;;5.93;;
52067;SDS011;60237;52.338;21.228;2023-10-31T05:32:03;79.85;;;8.23;;
52067;SDS011;60237;52.338;21.228;2023-10-31T05:34:31;39.88;;;5.15;;
52067;SDS011;60237;52.338;21.228;2023-10-31T05:36:59;53.90;;;6.80;;
52067;SDS011;60237;52.338;21.228;2023-10-31T05:39:27;58.25;;;5.95;;
52067;SDS011;60237;52.338;21.228;2023-10-31T05:41:54;69.82;;;6.03;;
52067;SDS011;60237;52.338;21.228;2023-10-31T05:44:21;52.92;;;5.63;;
52067;SDS011;60237;52.338;21.228;2023-10-31T05:46:48;39.10;;;5.03;;
52067;SDS011;60237;52.338;21.228;2023-10-31T05:49:16;26.48;;;4.53;;
52067;SDS011;60237;52.338;21.228;2023-10-31T05:51:43;36.80;;;4.85;;
52067;SDS011;60237;52.338;21.228;2023-10-31T05:54:10;53.17;;;5.78;;
52067;SDS011;60237;52.338;21.228;2023-10-31T05:56:37;49.33;;;5.35;;
52067;SDS011;60237;52.338;21.228;2023-10-31T05:59:05;38.25;;;4.78;;
52067;SDS011;60237;52.338;21.228;2023-10-31T06:01:32;33.13;;;4.43;;
52067;SDS011;60237;52.338;21.228;2023-10-31T06:03:59;50.38;;;5.22;;
52067;SDS011;60237;52.338;21.228;2023-10-31T06:06:26;45.38;;;4.60;;
52067;SDS011;60237;52.338;21.228;2023-10-31T06:08:53;66.57;;;6.47;;
52067;SDS011;60237;52.338;21.228;2023-10-31T06:11:20;53.00;;;5.50;;
52067;SDS011;60237;52.338;21.228;2023-10-31T06:13:47;34.60;;;4.32;;
52067;SDS011;60237;52.338;21.228;2023-10-31T06:16:14;28.05;;;4.25;;
52067;SDS011;60237;52.338;21.228;2023-10-31T06:18:42;47.40;;;4.88;;
52067;SDS011;60237;52.338;21.228;2023-10-31T06:21:09;34.55;;;4.55;;
52067;SDS011;60237;52.338;21.228;2023-10-31T06:23:36;41.35;;;4.82;;
52067;SDS011;60237;52.338;21.228;2023-10-31T06:26:04;33.30;;;3.67;;
52067;SDS011;60237;52.338;21.228;2023-10-31T06:28:31;32.97;;;4.68;;
52067;SDS011;60237;52.338;21.228;2023-10-31T06:31:07;26.33;;;4.20;;
52067;SDS011;60237;52.338;21.228;2023-10-31T06:33:34;30.75;;;3.78;;
52067;SDS011;60237;52.338;21.228;2023-10-31T06:36:01;83.97;;;7.13;;
52067;SDS011;60237;52.338;21.228;2023-10-31T06:38:28;23.33;;;3.97;;
52067;SDS011;60237;52.338;21.228;2023-10-31T06:40:57;38.05;;;4.85;;
52067;SDS011;60237;52.338;21.228;2023-10-31T06:43:25;24.88;;;3.60;;
52067;SDS011;60237;52.338;21.228;2023-10-31T06:45:57;40.20;;;4.75;;
52067;SDS011;60237;52.338;21.228;2023-10-31T06:48:27;41.63;;;5.72;;
52067;SDS011;60237;52.338;21.228;2023-10-31T06:50:54;85.82;;;7.50;;
52067;SDS011;60237;52.338;21.228;2023-10-31T06:53:21;35.45;;;4.72;;
52067;SDS011;60237;52.338;21.228;2023-10-31T06:55:48;40.38;;;4.75;;
52067;SDS011;60237;52.338;21.228;2023-10-31T06:58:17;43.17;;;5.05;;
52067;SDS011;60237;52.338;21.228;2023-10-31T07:00:44;50.35;;;5.95;;
52067;SDS011;60237;52.338;21.228;2023-10-31T07:03:11;37.10;;;4.43;;
52067;SDS011;60237;52.338;21.228;2023-10-31T07:05:42;34.85;;;4.47;;
52067;SDS011;60237;52.338;21.228;2023-10-31T07:08:09;37.70;;;4.72;;
52067;SDS011;60237;52.338;21.228;2023-10-31T07:10:36;30.90;;;4.28;;
52067;SDS011;60237;52.338;21.228;2023-10-31T07:13:03;42.05;;;4.90;;
52067;SDS011;60237;52.338;21.228;2023-10-31T07:15:30;27.17;;;4.10;;
52067;SDS011;60237;52.338;21.228;2023-10-31T07:17:57;69.97;;;6.65;;
52067;SDS011;60237;52.338;21.228;2023-10-31T07:20:24;33.58;;;4.55;;
52067;SDS011;60237;52.338;21.228;2023-10-31T07:22:52;29.80;;;3.67;;
52067;SDS011;60237;52.338;21.228;2023-10-31T07:25:19;28.33;;;3.95;;
52067;SDS011;60237;52.338;21.228;2023-10-31T07:27:46;34.03;;;4.50;;
52067;SDS011;60237;52.338;21.228;2023-10-31T07:30:13;57.30;;;5.82;;
52067;SDS011;60237;52.338;21.228;2023-10-31T07:32:40;20.50;;;3.55;;
52067;SDS011;60237;52.338;21.228;2023-10-31T07:35:07;35.92;;;4.63;;
52067;SDS011;60237;52.338;21.228;2023-10-31T07:37:34;31.92;;;4.05;;
52067;SDS011;60237;52.338;21.228;2023-10-31T07:40:03;42.20;;;4.72;;
52067;SDS011;60237;52.338;21.228;2023-10-31T07:42:31;43.40;;;4.63;;
52067;SDS011;60237;52.338;21.228;2023-10-31T07:44:58;83.57;;;6.95;;
52067;SDS011;60237;52.338;21.228;2023-10-31T07:47:25;49.50;;;5.55;;
52067;SDS011;60237;52.338;21.228;2023-10-31T07:49:52;34.00;;;4.28;;
52067;SDS011;60237;52.338;21.228;2023-10-31T07:52:20;32.13;;;4.25;;
52067;SDS011;60237;52.338;21.228;2023-10-31T07:54:47;19.90;;;3.20;;
52067;SDS011;60237;52.338;21.228;2023-10-31T07:57:14;31.25;;;4.40;;
52067;SDS011;60237;52.338;21.228;2023-10-31T07:59:41;41.75;;;4.72;;
52067;SDS011;60237;52.338;21.228;2023-10-31T08:02:08;34.20;;;4.65;;
52067;SDS011;60237;52.338;21.228;2023-10-31T08:04:36;40.55;;;4.70;;
52067;SDS011;60237;52.338;21.228;2023-10-31T08:07:03;37.88;;;4.32;;
52067;SDS011;60237;52.338;21.228;2023-10-31T08:09:30;45.10;;;4.90;;
52067;SDS011;60237;52.338;21.228;2023-10-31T08:11:58;61.72;;;6.05;;
52067;SDS011;60237;52.338;21.228;2023-10-31T08:14:25;62.97;;;5.80;;
52067;SDS011;60237;52.338;21.228;2023-10-31T08:16:52;40.88;;;4.35;;
52067;SDS011;60237;52.338;21.228;2023-10-31T08:19:19;35.05;;;4.18;;
52067;SDS011;60237;52.338;21.228;2023-10-31T08:21:47;31.73;;;4.25;;
52067;SDS011;60237;52.338;21.228;2023-10-31T08:24:14;33.13;;;4.13;;
52067;SDS011;60237;52.338;21.228;2023-10-31T08:26:41;25.25;;;3.40;;
52067;SDS011;60237;52.338;21.228;2023-10-31T08:29:08;58.63;;;5.47;;
52067;SDS011;60237;52.338;21.228;2023-10-31T08:31:35;36.17;;;4.75;;
52067;SDS011;60237;52.338;21.228;2023-10-31T08:34:02;52.15;;;5.57;;
52067;SDS011;60237;52.338;21.228;2023-10-31T08:36:29;30.35;;;3.72;;
52067;SDS011;60237;52.338;21.228;2023-10-31T08:38:57;72.97;;;6.50;;
52067;SDS011;60237;52.338;21.228;2023-10-31T08:41:24;33.78;;;4.10;;
52067;SDS011;60237;52.338;21.228;2023-10-31T08:43:51;26.40;;;3.33;;
52067;SDS011;60237;52.338;21.228;2023-10-31T08:46:18;33.42;;;4.53;;
52067;SDS011;60237;52.338;21.228;2023-10-31T08:48:46;24.13;;;3.40;;
52067;SDS011;60237;52.338;21.228;2023-10-31T08:51:13;39.97;;;4.38;;
52067;SDS011;60237;52.338;21.228;2023-10-31T08:53:40;31.05;;;3.42;;
52067;SDS011;60237;52.338;21.228;2023-10-31T08:56:07;37.25;;;4.50;;
52067;SDS011;60237;52.338;21.228;2023-10-31T08:58:34;44.55;;;4.88;;
52067;SDS011;60237;52.338;21.228;2023-10-31T09:01:01;36.92;;;4.25;;
52067;SDS011;60237;52.338;21.228;2023-10-31T09:03:29;35.22;;;4.03;;
52067;SDS011;60237;52.338;21.228;2023-10-31T09:05:57;80.35;;;6.88;;
52067;SDS011;60237;52.338;21.228;2023-10-31T09:08:24;28.70;;;3.63;;
52067;SDS011;60237;52.338;21.228;2023-10-31T09:10:51;22.55;;;3.40;;
52067;SDS011;60237;52.338;21.228;2023-10-31T09:13:18;29.83;;;3.60;;
52067;SDS011;60237;52.338;21.228;2023-10-31T09:15:46;32.78;;;4.43;;
52067;SDS011;60237;52.338;21.228;2023-10-31T09:18:13;50.13;;;4.85;;
52067;SDS011;60237;52.338;21.228;2023-10-31T09:20:40;36.10;;;4.18;;
52067;SDS011;60237;52.338;21.228;2023-10-31T09:23:07;46.47;;;4.47;;
52067;SDS011;60237;52.338;21.228;2023-10-31T09:25:34;48.53;;;5.35;;
52067;SDS011;60237;52.338;21.228;2023-10-31T09:28:02;26.75;;;3.75;;
52067;SDS011;60237;52.338;21.228;2023-10-31T09:30:29;34.15;;;4.28;;
52067;SDS011;60237;52.338;21.228;2023-10-31T09:32:56;41.38;;;4.93;;
52067;SDS011;60237;52.338;21.228;2023-10-31T09:35:23;30.55;;;3.70;;
52067;SDS011;60237;52.338;21.228;2023-10-31T09:37:50;23.38;;;3.45;;
52067;SDS011;60237;52.338;21.228;2023-10-31T09:40:17;39.80;;;4.32;;
52067;SDS011;60237;52.338;21.228;2023-10-31T09:42:44;51.78;;;5.07;;
52067;SDS011;60237;52.338;21.228;2023-10-31T09:45:13;53.78;;;4.90;;
52067;SDS011;60237;52.338;21.228;2023-10-31T09:47:40;30.63;;;3.90;;
52067;SDS011;60237;52.338;21.228;2023-10-31T09:50:08;38.20;;;4.60;;
52067;SDS011;60237;52.338;21.228;2023-10-31T09:52:36;40.97;;;4.40;;
52067;SDS011;60237;52.338;21.228;2023-10-31T09:55:03;40.70;;;4.45;;
52067;SDS011;60237;52.338;21.228;2023-10-31T09:57:31;38.53;;;4.80;;
52067;SDS011;60237;52.338;21.228;2023-10-31T09:59:58;78.75;;;7.63;;
52067;SDS011;60237;52.338;21.228;2023-10-31T10:02:26;17.05;;;2.95;;
52067;SDS011;60237;52.338;21.228;2023-10-31T10:04:53;43.00;;;4.53;;
52067;SDS011;60237;52.338;21.228;2023-10-31T10:07:20;68.93;;;6.38;;
52067;SDS011;60237;52.338;21.228;2023-10-31T10:09:48;21.00;;;4.03;;
52067;SDS011;60237;52.338;21.228;2023-10-31T10:12:16;50.83;;;5.10;;
52067;SDS011;60237;52.338;21.228;2023-10-31T10:14:46;43.15;;;4.88;;
52067;SDS011;60237;52.338;21.228;2023-10-31T10:17:23;33.10;;;3.97;;
52067;SDS011;60237;52.338;21.228;2023-10-31T10:20:04;26.13;;;3.75;;
52067;SDS011;60237;52.338;21.228;2023-10-31T10:22:32;25.05;;;3.63;;
52067;SDS011;60237;52.338;21.228;2023-10-31T10:24:59;44.05;;;5.88;;
52067;SDS011;60237;52.338;21.228;2023-10-31T10:27:26;48.83;;;5.15;;
52067;SDS011;60237;52.338;21.228;2023-10-31T10:29:53;40.88;;;5.60;;
52067;SDS011;60237;52.338;21.228;2023-10-31T10:32:21;31.02;;;4.50;;
52067;SDS011;60237;52.338;21.228;2023-10-31T10:34:48;26.90;;;4.75;;
52067;SDS011;60237;52.338;21.228;2023-10-31T10:37:15;36.42;;;4.30;;
52067;SDS011;60237;52.338;21.228;2023-10-31T10:39:46;45.63;;;5.35;;
52067;SDS011;60237;52.338;21.228;2023-10-31T10:42:14;63.90;;;6.60;;
52067;SDS011;60237;52.338;21.228;2023-10-31T10:44:44;38.45;;;5.38;;
52067;SDS011;60237;52.338;21.228;2023-10-31T10:47:12;37.20;;;6.22;;
52067;SDS011;60237;52.338;21.228;2023-10-31T10:49:41;65.35;;;9.50;;
52067;SDS011;60237;52.338;21.228;2023-10-31T10:57:31;43.38;;;5.18;;
52067;SDS011;60237;52.338;21.228;2023-10-31T11:00:02;68.80;;;6.38;;
52067;SDS011;60237;52.338;21.228;2023-10-31T11:02:30;31.98;;;4.00;;
52067;SDS011;60237;52.338;21.228;2023-10-31T11:04:59;34.15;;;4.60;;
52067;SDS011;60237;52.338;21.228;2023-10-31T11:07:27;26.30;;;3.75;;
52067;SDS011;60237;52.338;21.228;2023-10-31T11:09:55;36.72;;;4.38;;
52067;SDS011;60237;52.338;21.228;2023-10-31T11:12:23;40.67;;;4.97;;
52067;SDS011;60237;52.338;21.228;2023-10-31T11:14:51;49.70;;;5.45;;
52067;SDS011;60237;52.338;21.228;2023-10-31T11:17:28;35.35;;;4.28;;
52067;SDS011;60237;52.338;21.228;2023-10-31T11:19:57;31.38;;;3.83;;
52067;SDS011;60237;52.338;21.228;2023-10-31T11:22:24;27.63;;;3.70;;
52067;SDS011;60237;52.338;21.228;2023-10-31T11:24:51;38.72;;;5.80;;
52067;SDS011;60237;52.338;21.228;2023-10-31T11:27:19;59.13;;;5.63;;
52067;SDS011;60237;52.338;21.228;2023-10-31T11:29:46;64.63;;;5.93;;
52067;SDS011;60237;52.338;21.228;2023-10-31T11:32:14;37.35;;;4.65;;
52067;SDS011;60237;52.338;21.228;2023-10-31T11:34:41;41.75;;;5.28;;
52067;SDS011;60237;52.338;21.228;2023-10-31T11:37:31;38.13;;;4.72;;
52067;SDS011;60237;52.338;21.228;2023-10-31T11:42:46;30.85;;;4.55;;
52067;SDS011;60237;52.338;21.228;2023-10-31T11:45:23;62.55;;;6.20;;
52067;SDS011;60237;52.338;21.228;2023-10-31T11:47:51;20.23;;;4.15;;
52067;SDS011;60237;52.338;21.228;2023-10-31T11:50:21;36.38;;;4.65;;
52067;SDS011;60237;52.338;21.228;2023-10-31T11:52:58;39.30;;;4.72;;
52067;SDS011;60237;52.338;21.228;2023-10-31T11:55:25;29.65;;;4.60;;
52067;SDS011;60237;52.338;21.228;2023-10-31T11:57:52;40.85;;;4.70;;
52067;SDS011;60237;52.338;21.228;2023-10-31T12:00:20;27.17;;;3.53;;
52067;SDS011;60237;52.338;21.228;2023-10-31T12:03:01;34.38;;;4.10;;
52067;SDS011;60237;52.338;21.228;2023-10-31T12:05:29;34.40;;;4.22;;
52067;SDS011;60237;52.338;21.228;2023-10-31T12:07:56;32.58;;;4.07;;
52067;SDS011;60237;52.338;21.228;2023-10-31T12:10:27;26.55;;;4.13;;
52067;SDS011;60237;52.338;21.228;2023-10-31T12:12:57;31.00;;;3.67;;
52067;SDS011;60237;52.338;21.228;2023-10-31T12:15:25;47.47;;;8.57;;
52067;SDS011;60237;52.338;21.228;2023-10-31T12:17:52;46.53;;;4.70;;
52067;SDS011;60237;52.338;21.228;2023-10-31T12:20:19;20.92;;;3.83;;
52067;SDS011;60237;52.338;21.228;2023-10-31T12:22:46;30.08;;;3.67;;
52067;SDS011;60237;52.338;21.228;2023-10-31T12:25:13;39.45;;;4.47;;
52067;SDS011;60237;52.338;21.228;2023-10-31T12:27:47;34.00;;;3.83;;
52067;SDS011;60237;52.338;21.228;2023-10-31T12:30:16;32.92;;;3.97;;
52067;SDS011;60237;52.338;21.228;2023-10-31T12:32:44;45.15;;;4.85;;
52067;SDS011;60237;52.338;21.228;2023-10-31T12:35:12;23.95;;;2.75;;
52067;SDS011;60237;52.338;21.228;2023-10-31T12:37:44;37.42;;;3.97;;
52067;SDS011;60237;52.338;21.228;2023-10-31T12:40:12;33.17;;;3.33;;
52067;SDS011;60237;52.338;21.228;2023-10-31T12:42:42;38.20;;;4.20;;
52067;SDS011;60237;52.338;21.228;2023-10-31T12:45:09;73.55;;;5.68;;
52067;SDS011;60237;52.338;21.228;2023-10-31T12:47:36;25.35;;;3.40;;
52067;SDS011;60237;52.338;21.228;2023-10-31T12:50:08;45.97;;;7.57;;
52067;SDS011;60237;52.338;21.228;2023-10-31T12:52:49;53.35;;;4.95;;
52067;SDS011;60237;52.338;21.228;2023-10-31T12:55:18;30.52;;;3.92;;
52067;SDS011;60237;52.338;21.228;2023-10-31T12:57:45;48.40;;;4.65;;
52067;SDS011;60237;52.338;21.228;2023-10-31T13:00:15;48.65;;;4.30;;
52067;SDS011;60237;52.338;21.228;2023-10-31T13:02:45;27.33;;;3.28;;
52067;SDS011;60237;52.338;21.228;2023-10-31T13:05:12;44.17;;;3.90;;
52067;SDS011;60237;52.338;21.228;2023-10-31T13:07:40;22.33;;;2.40;;
52067;SDS011;60237;52.338;21.228;2023-10-31T13:10:07;24.00;;;2.72;;
52067;SDS011;60237;52.338;21.228;2023-10-31T13:12:37;37.88;;;3.97;;
52067;SDS011;60237;52.338;21.228;2023-10-31T13:15:04;69.13;;;5.55;;
52067;SDS011;60237;52.338;21.228;2023-10-31T13:17:32;18.55;;;2.70;;
52067;SDS011;60237;52.338;21.228;2023-10-31T13:19:59;22.67;;;2.67;;
52067;SDS011;60237;52.338;21.228;2023-10-31T13:22:26;29.58;;;2.95;;
52067;SDS011;60237;52.338;21.228;2023-10-31T13:24:53;13.15;;;1.77;;
52067;SDS011;60237;52.338;21.228;2023-10-31T13:27:20;34.38;;;3.22;;
52067;SDS011;60237;52.338;21.228;2023-10-31T13:29:47;31.45;;;2.88;;
52067;SDS011;60237;52.338;21.228;2023-10-31T13:32:16;35.05;;;3.10;;
52067;SDS011;60237;52.338;21.228;2023-10-31T13:34:43;32.20;;;2.95;;
52067;SDS011;60237;52.338;21.228;2023-10-31T13:37:10;28.70;;;2.85;;
52067;SDS011;60237;52.338;21.228;2023-10-31T13:39:37;20.73;;;2.33;;
52067;SDS011;60237;52.338;21.228;2023-10-31T13:42:05;75.70;;;5.60;;
52067;SDS011;60237;52.338;21.228;2023-10-31T13:44:32;41.15;;;3.40;;
52067;SDS011;60237;52.338;21.228;2023-10-31T13:47:00;24.98;;;2.53;;
52067;SDS011;60237;52.338;21.228;2023-10-31T13:49:27;26.08;;;2.45;;
52067;SDS011;60237;52.338;21.228;2023-10-31T13:51:54;24.30;;;2.50;;
52067;SDS011;60237;52.338;21.228;2023-10-31T13:54:21;24.25;;;2.80;;
52067;SDS011;60237;52.338;21.228;2023-10-31T13:56:48;29.27;;;2.85;;
52067;SDS011;60237;52.338;21.228;2023-10-31T13:59:15;34.20;;;2.95;;
52067;SDS011;60237;52.338;21.228;2023-10-31T14:01:42;31.80;;;3.05;;
52067;SDS011;60237;52.338;21.228;2023-10-31T14:04:10;29.27;;;3.13;;
52067;SDS011;60237;52.338;21.228;2023-10-31T14:06:37;23.52;;;2.50;;
52067;SDS011;60237;52.338;21.228;2023-10-31T14:09:05;66.78;;;5.63;;
52067;SDS011;60237;52.338;21.228;2023-10-31T14:11:33;33.83;;;3.10;;
52067;SDS011;60237;52.338;21.228;2023-10-31T14:14:00;31.13;;;3.03;;
52067;SDS011;60237;52.338;21.228;2023-10-31T14:16:33;25.95;;;2.80;;
52067;SDS011;60237;52.338;21.228;2023-10-31T14:19:00;37.15;;;3.35;;
52067;SDS011;60237;52.338;21.228;2023-10-31T14:21:29;32.33;;;3.13;;
52067;SDS011;60237;52.338;21.228;2023-10-31T14:23:56;39.08;;;3.47;;
52067;SDS011;60237;52.338;21.228;2023-10-31T14:26:36;24.77;;;2.70;;
52067;SDS011;60237;52.338;21.228;2023-10-31T14:29:03;49.88;;;4.00;;
52067;SDS011;60237;52.338;21.228;2023-10-31T14:31:30;64.70;;;4.57;;